createdAt,value
2018-04-23T00:00:35.349Z,0.00
2018-04-23T00:01:35.305Z,0.00
2018-04-23T00:02:35.263Z,0.00
2018-04-23T00:03:35.227Z,0.00
2018-04-23T00:04:35.182Z,0.00
2018-04-23T00:05:35.146Z,0.00
2018-04-23T00:06:35.103Z,0.00
2018-04-23T00:07:35.062Z,0.00
2018-04-23T00:08:35.021Z,0.00
2018-04-23T00:09:34.980Z,0.00
2018-04-23T00:10:34.942Z,0.00
2018-04-23T00:11:34.900Z,0.00
2018-04-23T00:12:34.866Z,0.00
2018-04-23T00:13:34.822Z,0.00
2018-04-23T00:14:34.782Z,0.00
2018-04-23T00:15:34.741Z,0.00
2018-04-23T00:16:34.705Z,0.00
2018-04-23T00:17:34.657Z,0.00
2018-04-23T00:18:34.617Z,0.00
2018-04-23T00:19:34.577Z,0.00
2018-04-23T00:20:34.558Z,0.00
2018-04-23T00:21:34.495Z,0.00
2018-04-23T00:22:34.457Z,0.00
2018-04-23T00:23:34.416Z,0.00
2018-04-23T00:24:34.376Z,0.00
2018-04-23T00:25:34.336Z,0.00
2018-04-23T00:26:34.299Z,0.00
2018-04-23T00:27:34.256Z,0.00
2018-04-23T00:28:34.215Z,0.00
2018-04-23T00:29:34.174Z,0.00
2018-04-23T00:30:34.136Z,0.00
2018-04-23T00:31:34.095Z,0.00
2018-04-23T00:32:34.057Z,0.00
2018-04-23T00:33:34.010Z,0.00
2018-04-23T00:34:33.972Z,0.00
2018-04-23T00:35:33.930Z,0.00
2018-04-23T00:36:33.891Z,0.00
2018-04-23T00:37:33.850Z,0.00
2018-04-23T00:38:33.808Z,0.00
2018-04-23T00:39:33.772Z,0.00
2018-04-23T00:40:33.728Z,0.00
2018-04-23T00:41:33.687Z,0.00
2018-04-23T00:42:33.647Z,0.00
2018-04-23T00:43:33.608Z,0.00
2018-04-23T00:44:33.568Z,0.00
2018-04-23T00:45:33.527Z,0.00
2018-04-23T00:46:33.486Z,0.00
2018-04-23T00:47:33.447Z,0.00
2018-04-23T00:48:33.409Z,0.00
2018-04-23T00:49:33.365Z,0.00
2018-04-23T00:50:33.327Z,0.00
2018-04-23T00:51:33.284Z,0.00
2018-04-23T00:52:33.248Z,0.00
2018-04-23T00:53:33.205Z,0.00
2018-04-23T00:54:33.165Z,0.00
2018-04-23T00:55:33.124Z,0.00
2018-04-23T00:56:33.097Z,0.00
2018-04-23T00:57:33.044Z,0.00
2018-04-23T00:58:33.001Z,0.00
2018-04-23T00:59:32.961Z,0.00
2018-04-23T01:00:32.924Z,0.00
2018-04-23T01:01:32.881Z,0.00
2018-04-23T01:02:32.841Z,0.00
2018-04-23T01:03:32.800Z,0.00
2018-04-23T01:04:32.759Z,0.00
2018-04-23T01:05:32.720Z,0.00
2018-04-23T01:06:32.679Z,0.00
2018-04-23T01:07:32.644Z,0.00
2018-04-23T01:08:32.597Z,0.00
2018-04-23T01:09:32.558Z,0.00
2018-04-23T01:10:32.529Z,0.00
2018-04-23T01:11:32.478Z,0.00
2018-04-23T01:12:32.442Z,0.00
2018-04-23T01:13:32.396Z,0.00
2018-04-23T01:14:32.358Z,0.00
2018-04-23T01:15:32.318Z,0.00
2018-04-23T01:16:32.273Z,0.00
2018-04-23T01:17:32.235Z,0.00
2018-04-23T01:18:32.254Z,0.00
2018-04-23T01:19:32.154Z,0.00
2018-04-23T01:20:32.118Z,0.00
2018-04-23T01:21:32.073Z,0.00
2018-04-23T01:22:32.034Z,0.00
2018-04-23T01:23:31.991Z,0.00
2018-04-23T01:24:31.950Z,0.00
2018-04-23T01:25:31.910Z,0.00
2018-04-23T01:26:31.875Z,0.00
2018-04-23T01:27:31.832Z,0.00
2018-04-23T01:28:31.789Z,0.00
2018-04-23T01:29:31.751Z,0.00
2018-04-23T01:30:31.707Z,0.00
2018-04-23T01:31:31.669Z,0.00
2018-04-23T01:32:31.626Z,0.00
2018-04-23T01:33:31.590Z,0.00
2018-04-23T01:34:31.545Z,0.00
2018-04-23T01:35:31.509Z,0.00
2018-04-23T01:36:31.465Z,0.00
2018-04-23T01:37:31.425Z,0.00
2018-04-23T01:38:31.384Z,0.00
2018-04-23T01:39:31.343Z,0.00
2018-04-23T01:40:31.303Z,0.00
2018-04-23T01:41:31.262Z,0.00
2018-04-23T01:42:31.224Z,0.00
2018-04-23T01:43:31.180Z,0.00
2018-04-23T01:44:31.141Z,0.00
2018-04-23T01:45:31.103Z,0.00
2018-04-23T01:46:31.063Z,0.00
2018-04-23T01:47:31.023Z,0.00
2018-04-23T01:48:30.979Z,0.00
2018-04-23T01:49:30.935Z,0.00
2018-04-23T01:50:30.900Z,0.00
2018-04-23T01:51:30.856Z,0.00
2018-04-23T01:52:30.819Z,0.00
2018-04-23T01:53:30.774Z,0.00
2018-04-23T01:54:30.735Z,0.00
2018-04-23T01:55:30.697Z,0.00
2018-04-23T01:56:30.654Z,0.00
2018-04-23T01:57:30.613Z,0.00
2018-04-23T01:58:30.570Z,0.00
2018-04-23T01:59:30.534Z,0.00
2018-04-23T02:00:30.542Z,0.00
2018-04-23T02:01:30.450Z,0.00
2018-04-23T02:02:30.408Z,0.00
2018-04-23T02:03:30.367Z,0.00
2018-04-23T02:04:30.330Z,0.00
2018-04-23T02:05:30.285Z,0.00
2018-04-23T02:06:30.246Z,0.00
2018-04-23T02:07:30.208Z,0.00
2018-04-23T02:08:30.166Z,0.00
2018-04-23T02:09:30.122Z,0.00
2018-04-23T02:10:30.081Z,0.00
2018-04-23T02:11:30.044Z,0.00
2018-04-23T02:12:29.999Z,0.00
2018-04-23T02:13:29.958Z,0.00
2018-04-23T02:14:29.918Z,0.00
2018-04-23T02:15:29.880Z,0.00
2018-04-23T02:16:29.837Z,0.00
2018-04-23T02:17:29.795Z,0.00
2018-04-23T02:18:29.756Z,0.00
2018-04-23T02:19:29.713Z,0.00
2018-04-23T02:20:29.673Z,0.00
2018-04-23T02:21:29.632Z,0.00
2018-04-23T02:22:29.593Z,0.00
2018-04-23T02:23:29.550Z,0.00
2018-04-23T02:24:29.510Z,0.00
2018-04-23T02:25:29.468Z,0.00
2018-04-23T02:26:29.431Z,0.00
2018-04-23T02:27:29.387Z,0.00
2018-04-23T02:28:29.345Z,0.00
2018-04-23T02:29:29.304Z,0.00
2018-04-23T02:30:29.273Z,0.00
2018-04-23T02:31:29.224Z,0.00
2018-04-23T02:32:29.181Z,0.00
2018-04-23T02:33:29.148Z,0.00
2018-04-23T02:34:29.129Z,0.00
2018-04-23T02:35:29.062Z,0.00
2018-04-23T02:36:29.018Z,0.00
2018-04-23T02:37:28.978Z,0.00
2018-04-23T02:38:28.943Z,0.00
2018-04-23T02:39:28.895Z,0.00
2018-04-23T02:40:28.854Z,0.00
2018-04-23T02:41:28.814Z,0.00
2018-04-23T02:42:28.772Z,0.00
2018-04-23T02:43:28.732Z,0.00
2018-04-23T02:44:28.692Z,0.00
2018-04-23T02:45:28.650Z,0.00
2018-04-23T02:46:28.614Z,0.00
2018-04-23T02:47:28.571Z,0.00
2018-04-23T02:48:28.526Z,0.00
2018-04-23T02:49:28.486Z,0.00
2018-04-23T02:50:28.445Z,0.00
2018-04-23T02:51:28.406Z,0.00
2018-04-23T02:52:28.366Z,0.00
2018-04-23T02:53:28.376Z,0.00
2018-04-23T02:54:28.280Z,0.00
2018-04-23T02:55:28.243Z,0.00
2018-04-23T02:56:28.205Z,0.00
2018-04-23T02:57:28.161Z,0.00
2018-04-23T02:58:28.118Z,0.00
2018-04-23T02:59:28.074Z,0.00
2018-04-23T03:00:28.034Z,0.00
2018-04-23T03:01:27.994Z,0.00
2018-04-23T03:02:27.957Z,0.00
2018-04-23T03:03:27.911Z,0.00
2018-04-23T03:04:27.871Z,0.00
2018-04-23T03:05:27.829Z,0.00
2018-04-23T03:06:27.791Z,0.00
2018-04-23T03:07:27.752Z,0.00
2018-04-23T03:08:27.710Z,0.00
2018-04-23T03:09:27.673Z,0.00
2018-04-23T03:10:27.624Z,0.00
2018-04-23T03:11:27.588Z,0.00
2018-04-23T03:12:27.542Z,0.00
2018-04-23T03:13:27.502Z,0.00
2018-04-23T03:14:27.461Z,0.00
2018-04-23T03:15:27.421Z,0.00
2018-04-23T03:16:27.378Z,0.00
2018-04-23T03:17:27.339Z,0.00
2018-04-23T03:18:27.298Z,0.00
2018-04-23T03:19:27.255Z,0.00
2018-04-23T03:20:27.216Z,0.00
2018-04-23T03:21:27.172Z,0.00
2018-04-23T03:22:27.133Z,0.00
2018-04-23T03:23:27.093Z,0.00
2018-04-23T03:24:27.051Z,0.00
2018-04-23T03:25:27.010Z,0.00
2018-04-23T03:26:26.973Z,0.00
2018-04-23T03:27:26.933Z,0.00
2018-04-23T03:28:26.888Z,0.00
2018-04-23T03:29:26.845Z,0.00
2018-04-23T03:30:26.807Z,0.00
2018-04-23T03:31:26.763Z,0.00
2018-04-23T03:32:26.736Z,0.00
2018-04-23T03:33:26.681Z,0.00
2018-04-23T03:34:26.641Z,0.00
2018-04-23T03:35:26.605Z,0.00
2018-04-23T03:36:26.561Z,0.00
2018-04-23T03:37:26.517Z,0.00
2018-04-23T03:38:26.477Z,0.00
2018-04-23T03:39:26.436Z,0.00
2018-04-23T03:40:26.394Z,0.00
2018-04-23T03:41:26.359Z,0.00
2018-04-23T03:42:26.314Z,0.00
2018-04-23T03:43:26.275Z,0.00
2018-04-23T03:44:26.331Z,0.00
2018-04-23T03:45:26.191Z,0.00
2018-04-23T03:46:26.151Z,0.00
2018-04-23T03:47:26.110Z,0.00
2018-04-23T03:48:26.068Z,0.00
2018-04-23T03:49:26.035Z,0.00
2018-04-23T03:50:25.988Z,0.00
2018-04-23T03:51:25.948Z,0.00
2018-04-23T03:52:25.903Z,0.00
2018-04-23T03:53:25.867Z,0.00
2018-04-23T03:54:25.826Z,0.00
2018-04-23T03:55:25.781Z,0.00
2018-04-23T03:56:25.738Z,0.00
2018-04-23T03:57:25.701Z,0.00
2018-04-23T03:58:25.658Z,0.00
2018-04-23T03:59:25.616Z,0.00
2018-04-23T04:00:25.576Z,4.00
2018-04-23T04:01:25.536Z,4.00
2018-04-23T04:02:25.494Z,0.00
2018-04-23T04:03:25.453Z,0.00
2018-04-23T04:04:25.411Z,4.00
2018-04-23T04:05:25.377Z,4.00
2018-04-23T04:06:25.337Z,4.00
2018-04-23T04:07:25.308Z,8.00
2018-04-23T04:08:25.247Z,4.00
2018-04-23T04:09:25.317Z,4.00
2018-04-23T04:10:25.165Z,4.00
2018-04-23T04:11:25.128Z,8.00
2018-04-23T04:12:25.092Z,8.00
2018-04-23T04:13:25.047Z,8.00
2018-04-23T04:14:25.003Z,8.00
2018-04-23T04:15:24.967Z,8.00
2018-04-23T04:16:24.927Z,8.00
2018-04-23T04:17:24.879Z,12.00
2018-04-23T04:18:24.838Z,12.00
2018-04-23T04:19:24.801Z,16.00
2018-04-23T04:20:24.758Z,20.00
2018-04-23T04:21:24.716Z,20.00
2018-04-23T04:22:24.677Z,28.00
2018-04-23T04:23:24.636Z,28.00
2018-04-23T04:24:24.600Z,32.00
2018-04-23T04:25:24.567Z,36.00
2018-04-23T04:26:24.511Z,36.00
2018-04-23T04:27:24.471Z,44.00
2018-04-23T04:28:24.429Z,52.00
2018-04-23T04:29:24.393Z,60.00
2018-04-23T04:30:24.347Z,68.00
2018-04-23T04:31:24.307Z,72.00
2018-04-23T04:32:24.264Z,80.00
2018-04-23T04:33:24.227Z,88.00
2018-04-23T04:34:24.183Z,100.00
2018-04-23T04:35:24.149Z,104.00
2018-04-23T04:36:24.104Z,112.00
2018-04-23T04:37:24.060Z,120.00
2018-04-23T04:38:24.022Z,124.00
2018-04-23T04:39:23.981Z,136.00
2018-04-23T04:40:23.935Z,148.00
2018-04-23T04:41:23.895Z,164.00
2018-04-23T04:42:23.856Z,180.00
2018-04-23T04:43:23.814Z,192.00
2018-04-23T04:44:23.774Z,200.00
2018-04-23T04:45:23.733Z,216.00
2018-04-23T04:46:23.694Z,232.00
2018-04-23T04:47:23.653Z,244.00
2018-04-23T04:48:23.614Z,252.00
2018-04-23T04:49:23.568Z,268.00
2018-04-23T04:50:23.527Z,276.00
2018-04-23T04:51:23.535Z,292.00
2018-04-23T04:52:23.449Z,308.00
2018-04-23T04:53:23.404Z,328.00
2018-04-23T04:54:23.364Z,340.00
2018-04-23T04:55:23.323Z,336.00
2018-04-23T04:56:23.282Z,324.00
2018-04-23T04:57:23.240Z,328.00
2018-04-23T04:58:23.201Z,344.00
2018-04-23T04:59:23.161Z,372.00
2018-04-23T05:00:23.118Z,408.00
2018-04-23T05:01:23.080Z,444.00
2018-04-23T05:02:23.038Z,464.00
2018-04-23T05:03:22.996Z,472.00
2018-04-23T05:04:22.951Z,500.00
2018-04-23T05:05:22.911Z,516.00
2018-04-23T05:06:22.871Z,532.00
2018-04-23T05:07:22.829Z,536.00
2018-04-23T05:08:22.788Z,520.00
2018-04-23T05:09:22.751Z,512.00
2018-04-23T05:10:22.709Z,508.00
2018-04-23T05:11:22.666Z,524.00
2018-04-23T05:12:22.635Z,544.00
2018-04-23T05:13:22.592Z,576.00
2018-04-23T05:14:22.543Z,620.00
2018-04-23T05:15:22.505Z,640.00
2018-04-23T05:16:22.464Z,612.00
2018-04-23T05:17:22.422Z,552.00
2018-04-23T05:18:22.380Z,512.00
2018-04-23T05:19:22.336Z,504.00
2018-04-23T05:20:22.299Z,508.00
2018-04-23T05:21:22.261Z,544.00
2018-04-23T05:22:22.221Z,600.00
2018-04-23T05:23:22.186Z,636.00
2018-04-23T05:24:22.138Z,644.00
2018-04-23T05:25:22.093Z,656.00
2018-04-23T05:26:22.052Z,688.00
2018-04-23T05:27:22.012Z,744.00
2018-04-23T05:28:21.974Z,796.00
2018-04-23T05:29:21.933Z,852.00
2018-04-23T05:30:21.886Z,868.00
2018-04-23T05:31:21.860Z,876.00
2018-04-23T05:32:21.807Z,864.00
2018-04-23T05:33:21.764Z,832.00
2018-04-23T05:34:21.724Z,816.00
2018-04-23T05:35:21.684Z,820.00
2018-04-23T05:36:21.643Z,852.00
2018-04-23T05:37:21.606Z,900.00
2018-04-23T05:38:21.559Z,884.00
2018-04-23T05:39:21.519Z,864.00
2018-04-23T05:40:21.480Z,876.00
2018-04-23T05:41:21.439Z,884.00
2018-04-23T05:42:21.395Z,904.00
2018-04-23T05:43:21.353Z,944.00
2018-04-23T05:44:21.313Z,972.00
2018-04-23T05:45:21.270Z,984.00
2018-04-23T05:46:21.231Z,1008.00
2018-04-23T05:47:21.193Z,1004.00
2018-04-23T05:48:21.152Z,984.00
2018-04-23T05:49:21.109Z,960.00
2018-04-23T05:50:21.072Z,952.00
2018-04-23T05:51:21.026Z,956.00
2018-04-23T05:52:20.988Z,964.00
2018-04-23T05:53:20.945Z,980.00
2018-04-23T05:54:20.904Z,996.00
2018-04-23T05:55:20.866Z,1000.00
2018-04-23T05:56:20.821Z,972.00
2018-04-23T05:57:20.779Z,940.00
2018-04-23T05:58:20.741Z,932.00
2018-04-23T05:59:20.701Z,916.00
2018-04-23T06:00:20.656Z,904.00
2018-04-23T06:01:20.616Z,916.00
2018-04-23T06:02:20.582Z,912.00
2018-04-23T06:03:20.535Z,884.00
2018-04-23T06:04:20.494Z,880.00
2018-04-23T06:05:20.452Z,872.00
2018-04-23T06:06:20.413Z,900.00
2018-04-23T06:07:20.373Z,988.00
2018-04-23T06:08:20.330Z,1044.00
2018-04-23T06:09:20.287Z,1080.00
2018-04-23T06:10:20.250Z,1128.00
2018-04-23T06:11:20.210Z,1168.00
2018-04-23T06:12:20.165Z,1220.00
2018-04-23T06:13:20.125Z,1260.00
2018-04-23T06:14:20.140Z,1280.00
2018-04-23T06:15:20.046Z,1316.00
2018-04-23T06:16:20.003Z,1352.00
2018-04-23T06:17:19.995Z,1380.00
2018-04-23T06:18:19.919Z,1392.00
2018-04-23T06:19:19.878Z,1392.00
2018-04-23T06:20:19.839Z,1388.00
2018-04-23T06:21:19.797Z,1376.00
2018-04-23T06:22:19.755Z,1348.00
2018-04-23T06:23:19.715Z,1356.00
2018-04-23T06:24:19.677Z,1364.00
2018-04-23T06:25:19.633Z,1368.00
2018-04-23T06:26:19.592Z,1376.00
2018-04-23T06:27:19.559Z,1372.00
2018-04-23T06:28:19.509Z,1364.00
2018-04-23T06:29:19.469Z,1332.00
2018-04-23T06:30:19.431Z,1288.00
2018-04-23T06:31:19.391Z,1284.00
2018-04-23T06:32:19.348Z,1296.00
2018-04-23T06:33:19.307Z,1292.00
2018-04-23T06:34:19.293Z,1288.00
2018-04-23T06:35:19.226Z,1232.00
2018-04-23T06:36:19.185Z,1216.00
2018-04-23T06:37:19.143Z,1260.00
2018-04-23T06:38:19.109Z,1284.00
2018-04-23T06:39:19.063Z,1288.00
2018-04-23T06:40:19.024Z,1256.00
2018-04-23T06:41:18.977Z,1200.00
2018-04-23T06:42:18.938Z,1140.00
2018-04-23T06:43:18.901Z,1112.00
2018-04-23T06:44:18.855Z,1104.00
2018-04-23T06:45:18.815Z,1100.00
2018-04-23T06:46:18.799Z,1100.00
2018-04-23T06:47:18.734Z,1104.00
2018-04-23T06:48:18.699Z,1120.00
2018-04-23T06:49:18.652Z,1112.00
2018-04-23T06:50:18.610Z,1136.00
2018-04-23T06:51:18.571Z,1160.00
2018-04-23T06:52:18.531Z,1180.00
2018-04-23T06:53:18.488Z,1160.00
2018-04-23T06:54:18.449Z,1136.00
2018-04-23T06:55:18.407Z,1168.00
2018-04-23T06:56:18.364Z,1160.00
2018-04-23T06:57:18.325Z,1220.00
2018-04-23T06:58:18.285Z,1188.00
2018-04-23T06:59:18.245Z,1240.00
2018-04-23T07:00:18.204Z,1288.00
2018-04-23T07:01:20.166Z,1156.00
2018-04-23T07:02:18.122Z,1120.00
2018-04-23T07:03:18.081Z,1176.00
2018-04-23T07:04:18.039Z,1092.00
2018-04-23T07:05:18.004Z,1116.00
2018-04-23T07:06:17.960Z,1228.00
2018-04-23T07:07:17.917Z,1244.00
2018-04-23T07:08:17.878Z,1224.00
2018-04-23T07:09:17.836Z,1144.00
2018-04-23T07:10:17.797Z,1188.00
2018-04-23T07:11:17.753Z,1328.00
2018-04-23T07:12:17.717Z,1556.00
2018-04-23T07:13:17.675Z,1780.00
2018-04-23T07:14:17.632Z,1920.00
2018-04-23T07:15:17.591Z,1800.00
2018-04-23T07:16:17.548Z,1556.00
2018-04-23T07:17:17.508Z,1368.00
2018-04-23T07:18:17.467Z,1404.00
2018-04-23T07:19:17.426Z,1540.00
2018-04-23T07:20:17.387Z,1608.00
2018-04-23T07:21:17.348Z,1676.00
2018-04-23T07:22:17.305Z,1544.00
2018-04-23T07:23:17.263Z,1884.00
2018-04-23T07:24:17.223Z,1992.00
2018-04-23T07:25:17.182Z,2160.00
2018-04-23T07:26:17.145Z,2292.00
2018-04-23T07:27:17.100Z,1644.00
2018-04-23T07:28:17.060Z,1660.00
2018-04-23T07:29:17.079Z,1984.00
2018-04-23T07:30:16.980Z,2828.00
2018-04-23T07:31:16.939Z,2528.00
2018-04-23T07:32:16.897Z,2056.00
2018-04-23T07:33:16.859Z,2704.00
2018-04-23T07:34:16.818Z,2116.00
2018-04-23T07:35:16.775Z,2324.00
2018-04-23T07:36:16.734Z,2400.00
2018-04-23T07:37:16.695Z,2956.00
2018-04-23T07:38:16.657Z,2416.00
2018-04-23T07:39:16.614Z,1724.00
2018-04-23T07:40:16.576Z,1692.00
2018-04-23T07:41:16.533Z,2036.00
2018-04-23T07:42:16.495Z,2324.00
2018-04-23T07:43:16.453Z,2860.00
2018-04-23T07:44:16.413Z,1916.00
2018-04-23T07:45:16.372Z,1928.00
2018-04-23T07:46:16.333Z,1876.00
2018-04-23T07:47:16.296Z,2320.00
2018-04-23T07:48:16.252Z,2084.00
2018-04-23T07:49:16.214Z,2008.00
2018-04-23T07:50:16.175Z,2592.00
2018-04-23T07:51:16.133Z,2640.00
2018-04-23T07:52:16.094Z,2992.00
2018-04-23T07:53:16.063Z,2816.00
2018-04-23T07:54:16.146Z,1992.00
2018-04-23T07:55:15.976Z,1868.00
2018-04-23T07:56:15.936Z,2544.00
2018-04-23T07:57:15.900Z,1980.00
2018-04-23T07:58:15.857Z,2192.00
2018-04-23T07:59:15.817Z,2008.00
2018-04-23T08:00:15.781Z,2872.00
2018-04-23T08:01:15.743Z,1940.00
2018-04-23T08:02:20.658Z,2208.00
2018-04-23T08:03:15.663Z,2296.00
2018-04-23T08:04:15.621Z,1712.00
2018-04-23T08:05:15.585Z,2572.00
2018-04-23T08:06:15.547Z,2352.00
2018-04-23T08:07:15.508Z,2532.00
2018-04-23T08:08:15.466Z,2628.00
2018-04-23T08:09:15.432Z,2556.00
2018-04-23T08:10:15.396Z,2676.00
2018-04-23T08:11:15.355Z,2720.00
2018-04-23T08:12:15.367Z,2800.00
2018-04-23T08:13:15.277Z,2880.00
2018-04-23T08:14:15.242Z,2848.00
2018-04-23T08:15:15.203Z,2836.00
2018-04-23T08:16:15.168Z,2860.00
2018-04-23T08:17:15.124Z,2832.00
2018-04-23T08:18:15.090Z,2724.00
2018-04-23T08:19:15.050Z,2784.00
2018-04-23T08:20:15.014Z,2740.00
2018-04-23T08:21:14.977Z,2504.00
2018-04-23T08:22:14.939Z,2228.00
2018-04-23T08:23:14.905Z,2388.00
2018-04-23T08:24:14.864Z,2900.00
2018-04-23T08:25:14.832Z,2900.00
2018-04-23T08:26:14.791Z,2892.00
2018-04-23T08:27:14.776Z,2832.00
2018-04-23T08:28:14.725Z,2812.00
2018-04-23T08:29:14.687Z,2832.00
2018-04-23T08:30:14.648Z,2840.00
2018-04-23T08:31:14.609Z,2868.00
2018-04-23T08:32:14.574Z,2968.00
2018-04-23T08:33:14.538Z,2948.00
2018-04-23T08:34:14.503Z,3012.00
2018-04-23T08:35:14.468Z,3000.00
2018-04-23T08:36:14.426Z,3000.00
2018-04-23T08:37:14.391Z,3024.00
2018-04-23T08:38:14.355Z,3024.00
2018-04-23T08:39:14.320Z,3040.00
2018-04-23T08:40:14.283Z,3084.00
2018-04-23T08:41:14.279Z,3096.00
2018-04-23T08:42:14.215Z,3100.00
2018-04-23T08:43:14.175Z,3136.00
2018-04-23T08:44:14.139Z,3228.00
2018-04-23T08:45:14.104Z,3296.00
2018-04-23T08:46:14.068Z,3280.00
2018-04-23T08:47:14.036Z,3244.00
2018-04-23T08:48:13.997Z,3260.00
2018-04-23T08:49:13.960Z,3304.00
2018-04-23T08:50:13.926Z,3360.00
2018-04-23T08:51:13.891Z,3380.00
2018-04-23T08:52:13.855Z,3376.00
2018-04-23T08:53:13.820Z,3432.00
2018-04-23T08:54:13.784Z,3304.00
2018-04-23T08:55:13.750Z,3344.00
2018-04-23T08:56:13.714Z,3524.00
2018-04-23T08:57:13.678Z,3672.00
2018-04-23T08:58:13.643Z,3820.00
2018-04-23T08:59:13.608Z,3852.00
2018-04-23T09:00:13.575Z,3944.00
2018-04-23T09:01:13.538Z,3944.00
2018-04-23T09:02:13.505Z,4052.00
2018-04-23T09:03:13.466Z,2512.00
2018-04-23T09:04:13.432Z,4788.00
2018-04-23T09:05:13.396Z,4780.00
2018-04-23T09:06:13.363Z,4796.00
2018-04-23T09:07:13.328Z,4688.00
2018-04-23T09:08:13.292Z,4084.00
2018-04-23T09:09:13.257Z,4648.00
2018-04-23T09:10:13.223Z,4236.00
2018-04-23T09:11:13.190Z,4140.00
2018-04-23T09:12:13.151Z,4364.00
2018-04-23T09:13:13.120Z,4868.00
2018-04-23T09:14:13.084Z,5084.00
2018-04-23T09:15:13.047Z,5140.00
2018-04-23T09:16:13.019Z,5280.00
2018-04-23T09:17:12.985Z,4156.00
2018-04-23T09:18:12.946Z,5648.00
2018-04-23T09:19:12.911Z,4348.00
2018-04-23T09:20:12.875Z,5412.00
2018-04-23T09:21:12.845Z,4300.00
2018-04-23T09:22:12.808Z,5240.00
2018-04-23T09:23:12.771Z,3536.00
2018-04-23T09:24:12.737Z,5488.00
2018-04-23T09:25:12.706Z,5320.00
2018-04-23T09:26:12.671Z,3316.00
2018-04-23T09:27:12.637Z,4948.00
2018-04-23T09:28:12.599Z,2620.00
2018-04-23T09:29:12.564Z,2812.00
2018-04-23T09:30:12.533Z,4880.00
2018-04-23T09:31:12.500Z,4508.00
2018-04-23T09:32:12.463Z,3616.00
2018-04-23T09:33:12.427Z,2436.00
2018-04-23T09:34:12.399Z,2536.00
2018-04-23T09:35:12.360Z,2320.00
2018-04-23T09:36:12.325Z,2440.00
2018-04-23T09:37:12.292Z,4576.00
2018-04-23T09:38:12.258Z,2020.00
2018-04-23T09:39:12.223Z,1924.00
2018-04-23T09:40:12.186Z,1736.00
2018-04-23T09:41:12.152Z,1900.00
2018-04-23T09:42:12.114Z,1956.00
2018-04-23T09:43:12.079Z,2152.00
2018-04-23T09:44:12.046Z,2216.00
2018-04-23T09:45:12.019Z,2168.00
2018-04-23T09:46:11.977Z,2208.00
2018-04-23T09:47:11.939Z,2128.00
2018-04-23T09:48:11.912Z,1832.00
2018-04-23T09:49:11.867Z,1828.00
2018-04-23T09:50:11.873Z,1816.00
2018-04-23T09:51:11.801Z,2528.00
2018-04-23T09:52:11.760Z,1884.00
2018-04-23T09:53:11.723Z,1980.00
2018-04-23T09:54:11.686Z,2128.00
2018-04-23T09:55:11.654Z,2068.00
2018-04-23T09:56:11.613Z,2036.00
2018-04-23T09:57:11.582Z,2116.00
2018-04-23T09:58:11.540Z,3912.00
2018-04-23T09:59:11.511Z,2172.00
2018-04-23T10:00:11.469Z,1888.00
2018-04-23T10:01:11.431Z,2052.00
2018-04-23T10:02:11.393Z,2084.00
2018-04-23T10:03:11.356Z,3432.00
2018-04-23T10:04:11.321Z,4252.00
2018-04-23T10:05:11.284Z,2252.00
2018-04-23T10:06:11.266Z,4036.00
2018-04-23T10:07:11.209Z,4032.00
2018-04-23T10:08:11.172Z,3976.00
2018-04-23T10:09:11.139Z,3900.00
2018-04-23T10:10:11.096Z,4004.00
2018-04-23T10:11:11.062Z,4012.00
2018-04-23T10:12:11.031Z,4248.00
2018-04-23T10:13:10.992Z,4332.00
2018-04-23T10:14:10.956Z,4320.00
2018-04-23T10:15:10.913Z,4560.00
2018-04-23T10:16:10.884Z,4392.00
2018-04-23T10:17:10.840Z,4400.00
2018-04-23T10:18:10.805Z,4532.00
2018-04-23T10:19:10.764Z,4600.00
2018-04-23T10:20:10.729Z,4868.00
2018-04-23T10:21:10.690Z,5048.00
2018-04-23T10:22:10.654Z,3100.00
2018-04-23T10:23:10.619Z,4956.00
2018-04-23T10:24:10.582Z,4468.00
2018-04-23T10:25:10.544Z,4628.00
2018-04-23T10:26:10.513Z,4300.00
2018-04-23T10:27:10.473Z,4456.00
2018-04-23T10:28:10.436Z,4476.00
2018-04-23T10:29:10.397Z,4600.00
2018-04-23T10:30:10.361Z,4756.00
2018-04-23T10:31:10.328Z,2356.00
2018-04-23T10:32:10.297Z,2496.00
2018-04-23T10:33:10.253Z,2252.00
2018-04-23T10:34:10.217Z,2472.00
2018-04-23T10:35:10.181Z,2100.00
2018-04-23T10:36:10.158Z,2144.00
2018-04-23T10:37:10.119Z,2272.00
2018-04-23T10:38:10.076Z,4188.00
2018-04-23T10:39:10.038Z,2972.00
2018-04-23T10:40:10.016Z,2380.00
2018-04-23T10:41:09.963Z,2484.00
2018-04-23T10:42:09.930Z,2284.00
2018-04-23T10:43:09.891Z,2488.00
2018-04-23T10:44:09.851Z,4632.00
2018-04-23T10:45:09.818Z,2160.00
2018-04-23T10:46:09.844Z,3312.00
2018-04-23T10:47:09.747Z,2020.00
2018-04-23T10:48:09.706Z,4532.00
2018-04-23T10:49:09.669Z,5184.00
2018-04-23T10:50:09.633Z,5312.00
2018-04-23T10:51:09.601Z,4988.00
2018-04-23T10:52:09.610Z,5240.00
2018-04-23T10:53:09.521Z,5088.00
2018-04-23T10:54:09.489Z,4700.00
2018-04-23T10:55:09.477Z,4148.00
2018-04-23T10:56:09.415Z,2636.00
2018-04-23T10:57:09.375Z,5224.00
2018-04-23T10:58:09.338Z,2816.00
2018-04-23T10:59:09.301Z,2876.00
2018-04-23T11:00:09.268Z,6144.00
2018-04-23T11:01:09.228Z,6352.00
2018-04-23T11:02:09.194Z,6336.00
2018-04-23T11:03:09.162Z,7388.00
2018-04-23T11:04:09.126Z,7880.00
2018-04-23T11:05:09.085Z,8220.00
2018-04-23T11:06:09.047Z,7780.00
2018-04-23T11:07:09.016Z,7688.00
2018-04-23T11:08:08.976Z,7944.00
2018-04-23T11:09:08.943Z,7656.00
2018-04-23T11:10:08.902Z,7216.00
2018-04-23T11:11:08.866Z,7372.00
2018-04-23T11:12:08.829Z,6892.00
2018-04-23T11:13:08.796Z,2504.00
2018-04-23T11:14:08.758Z,6976.00
2018-04-23T11:15:08.775Z,7240.00
2018-04-23T11:16:08.690Z,7628.00
2018-04-23T11:17:08.654Z,7260.00
2018-04-23T11:18:08.617Z,7852.00
2018-04-23T11:19:08.584Z,4236.00
2018-04-23T11:20:08.546Z,3784.00
2018-04-23T11:21:08.514Z,3416.00
2018-04-23T11:22:08.478Z,3620.00
2018-04-23T11:23:08.444Z,7628.00
2018-04-23T11:24:08.409Z,7960.00
2018-04-23T11:25:08.423Z,7768.00
2018-04-23T11:26:08.346Z,7864.00
2018-04-23T11:27:08.308Z,8032.00
2018-04-23T11:28:08.276Z,7652.00
2018-04-23T11:29:08.241Z,7712.00
2018-04-23T11:30:08.206Z,3240.00
2018-04-23T11:31:08.175Z,3476.00
2018-04-23T11:32:08.140Z,4028.00
2018-04-23T11:33:08.110Z,7880.00
2018-04-23T11:34:08.071Z,8020.00
2018-04-23T11:35:08.041Z,8328.00
2018-04-23T11:36:08.006Z,8368.00
2018-04-23T11:37:07.975Z,8084.00
2018-04-23T11:38:07.942Z,7652.00
2018-04-23T11:39:07.907Z,7612.00
2018-04-23T11:40:07.872Z,8040.00
2018-04-23T11:41:07.842Z,8116.00
2018-04-23T11:42:07.808Z,8520.00
2018-04-23T11:43:07.777Z,8484.00
2018-04-23T11:44:07.743Z,7688.00
2018-04-23T11:45:07.735Z,3864.00
2018-04-23T11:46:07.682Z,3144.00
2018-04-23T11:47:07.645Z,3020.00
2018-04-23T11:48:07.614Z,3048.00
2018-04-23T11:49:07.582Z,3680.00
2018-04-23T11:50:07.553Z,7496.00
2018-04-23T11:51:07.516Z,3712.00
2018-04-23T11:52:07.485Z,7236.00
2018-04-23T11:53:07.459Z,7196.00
2018-04-23T11:54:07.419Z,7048.00
2018-04-23T11:55:07.389Z,6832.00
2018-04-23T11:56:07.355Z,6808.00
2018-04-23T11:57:07.323Z,6960.00
2018-04-23T11:58:07.300Z,6900.00
2018-04-23T11:59:07.258Z,7004.00
2018-04-23T12:00:07.223Z,7156.00
2018-04-23T12:01:07.232Z,7792.00
2018-04-23T12:02:07.160Z,8208.00
2018-04-23T12:03:07.133Z,7548.00
2018-04-23T12:04:07.100Z,4412.00
2018-04-23T12:05:07.070Z,4380.00
2018-04-23T12:06:07.041Z,8816.00
2018-04-23T12:07:07.001Z,8748.00
2018-04-23T12:08:06.968Z,8772.00
2018-04-23T12:09:06.935Z,8372.00
2018-04-23T12:10:06.902Z,8188.00
2018-04-23T12:11:06.871Z,8620.00
2018-04-23T12:12:06.843Z,8760.00
2018-04-23T12:13:06.809Z,4468.00
2018-04-23T12:14:06.776Z,4048.00
2018-04-23T12:15:06.746Z,8412.00
2018-04-23T12:16:06.746Z,8468.00
2018-04-23T12:17:06.683Z,8968.00
2018-04-23T12:18:06.648Z,9016.00
2018-04-23T12:19:06.616Z,9112.00
2018-04-23T12:20:06.587Z,9192.00
2018-04-23T12:21:06.554Z,8964.00
2018-04-23T12:22:06.523Z,9184.00
2018-04-23T12:23:06.493Z,9136.00
2018-04-23T12:24:06.462Z,9388.00
2018-04-23T12:25:06.434Z,9188.00
2018-04-23T12:26:06.400Z,8576.00
2018-04-23T12:27:06.368Z,8228.00
2018-04-23T12:28:06.340Z,8484.00
2018-04-23T12:29:06.307Z,8652.00
2018-04-23T12:30:06.275Z,8868.00
2018-04-23T12:31:06.253Z,9144.00
2018-04-23T12:32:06.216Z,9136.00